createdAt,value
2018-09-23T00:00:02.093Z,50.37
2018-09-23T00:02:31.646Z,49.84
2018-09-23T00:05:01.183Z,50.25
2018-09-23T00:07:30.718Z,50.43
2018-09-23T00:10:00.267Z,50.42
2018-09-23T00:12:29.787Z,51.21
2018-09-23T00:14:59.417Z,50.52
2018-09-23T00:17:28.946Z,50.39
2018-09-23T00:19:58.484Z,50.27
2018-09-23T00:22:28.012Z,50.19
2018-09-23T00:24:57.575Z,49.99
2018-09-23T00:27:27.114Z,50.25
2018-09-23T00:29:56.628Z,50.66
2018-09-23T00:32:26.458Z,50.82
2018-09-23T00:34:55.952Z,51.05
2018-09-23T00:37:25.551Z,51.02
2018-09-23T00:39:55.048Z,51.13
2018-09-23T00:42:24.593Z,51.21
2018-09-23T00:44:54.109Z,51.63
2018-09-23T00:47:23.674Z,51.07
2018-09-23T00:49:53.258Z,51.21
2018-09-23T00:52:22.749Z,51.48
2018-09-23T00:54:52.338Z,51.39
2018-09-23T00:57:21.871Z,52.24
2018-09-23T00:59:51.421Z,52.45
2018-09-23T01:02:20.989Z,52.03
2018-09-23T01:04:50.567Z,51.95
2018-09-23T01:07:20.083Z,52.65
2018-09-23T01:09:49.642Z,53.11
2018-09-23T01:12:19.247Z,52.65
2018-09-23T01:14:48.769Z,53.29
2018-09-23T01:17:18.274Z,53.47
2018-09-23T01:19:47.845Z,53.52
2018-09-23T01:22:17.359Z,53.27
2018-09-23T01:24:46.902Z,52.99
2018-09-23T01:27:16.397Z,53.14
2018-09-23T01:29:45.935Z,52.82
2018-09-23T01:32:15.542Z,53.09
2018-09-23T01:34:45.077Z,52.87
2018-09-23T01:37:14.582Z,53.28
2018-09-23T01:39:44.108Z,53.50
2018-09-23T01:42:13.630Z,53.26
2018-09-23T01:44:43.178Z,54.19
2018-09-23T01:47:12.777Z,54.80
2018-09-23T01:49:42.317Z,54.46
2018-09-23T01:52:11.863Z,53.80
2018-09-23T01:54:41.556Z,54.85
2018-09-23T01:57:11.111Z,54.32
2018-09-23T01:59:40.603Z,54.31
2018-09-23T02:02:10.153Z,54.45
2018-09-23T02:04:39.653Z,55.02
2018-09-23T02:07:09.204Z,54.57
2018-09-23T02:09:38.791Z,54.56
2018-09-23T02:12:08.287Z,54.37
2018-09-23T02:14:37.848Z,54.67
2018-09-23T02:17:07.359Z,53.81
2018-09-23T02:19:36.952Z,53.88
2018-09-23T02:22:06.499Z,54.15
2018-09-23T02:24:36.046Z,53.73
2018-09-23T02:27:05.652Z,53.79
2018-09-23T02:29:35.178Z,53.37
2018-09-23T02:32:04.871Z,53.57
2018-09-23T02:34:34.514Z,52.95
2018-09-23T02:37:04.071Z,54.07
2018-09-23T02:39:33.571Z,53.85
2018-09-23T02:42:03.103Z,53.85
2018-09-23T02:44:32.756Z,53.66
2018-09-23T02:47:02.295Z,53.53
2018-09-23T02:49:31.850Z,54.39
2018-09-23T02:52:01.338Z,54.44
2018-09-23T02:54:30.863Z,54.55
2018-09-23T02:57:00.487Z,54.67
2018-09-23T02:59:29.998Z,55.11
2018-09-23T03:01:59.647Z,55.10
2018-09-23T03:04:29.174Z,54.81
2018-09-23T03:06:58.667Z,54.94
2018-09-23T03:09:28.324Z,55.18
2018-09-23T03:11:57.879Z,55.58
2018-09-23T03:14:27.473Z,55.39
2018-09-23T03:16:57.023Z,55.81
2018-09-23T03:19:26.702Z,55.83
2018-09-23T03:21:56.195Z,55.79
2018-09-23T03:24:25.710Z,55.58
2018-09-23T03:26:55.229Z,55.68
2018-09-23T03:29:24.776Z,55.89
2018-09-23T03:31:54.265Z,55.94
2018-09-23T03:34:23.945Z,56.12
2018-09-23T03:36:53.454Z,56.00
2018-09-23T03:39:22.986Z,56.39
2018-09-23T03:41:52.484Z,57.22
2018-09-23T03:44:22.012Z,56.86
2018-09-23T03:46:51.550Z,56.74
2018-09-23T03:49:21.135Z,56.82
2018-09-23T03:51:50.702Z,56.39
2018-09-23T03:54:23.583Z,56.29
2018-09-23T03:56:53.511Z,56.00
2018-09-23T03:59:23.127Z,56.49
2018-09-23T04:01:52.620Z,56.85
2018-09-23T04:04:22.143Z,56.87
2018-09-23T04:06:51.625Z,57.30
2018-09-23T04:09:21.155Z,57.03
2018-09-23T04:11:50.652Z,57.19
2018-09-23T04:14:20.218Z,57.54
2018-09-23T04:16:49.728Z,56.85
2018-09-23T04:19:19.276Z,56.79
2018-09-23T04:21:48.852Z,56.15
2018-09-23T04:24:18.369Z,56.15
2018-09-23T04:26:47.898Z,56.12
2018-09-23T04:29:17.445Z,55.94
2018-09-23T04:31:46.974Z,56.11
2018-09-23T04:34:16.579Z,56.00
2018-09-23T04:36:46.170Z,56.24
2018-09-23T04:39:15.715Z,56.03
2018-09-23T04:41:45.201Z,56.03
2018-09-23T04:44:14.841Z,56.17
2018-09-23T04:46:44.374Z,56.26
2018-09-23T04:49:13.902Z,56.04
2018-09-23T04:51:43.466Z,55.92
2018-09-23T04:54:13.056Z,55.72
2018-09-23T04:56:42.647Z,55.25
2018-09-23T04:59:12.183Z,55.59
2018-09-23T05:01:41.750Z,55.50
2018-09-23T05:04:11.242Z,55.45
2018-09-23T05:06:40.768Z,54.21
2018-09-23T05:09:11.162Z,54.33
2018-09-23T05:11:40.821Z,53.57
2018-09-23T05:14:10.379Z,53.16
2018-09-23T05:16:39.995Z,53.78
2018-09-23T05:19:09.526Z,54.37
2018-09-23T05:21:39.137Z,53.83
2018-09-23T05:24:08.631Z,54.44
2018-09-23T05:26:38.149Z,54.63
2018-09-23T05:29:07.682Z,53.69
2018-09-23T05:31:37.228Z,52.94
2018-09-23T05:34:06.804Z,52.77
2018-09-23T05:36:36.386Z,51.91
2018-09-23T05:39:07.860Z,52.06
2018-09-23T05:41:37.398Z,51.06
2018-09-23T05:44:07.275Z,50.83
2018-09-23T05:46:36.774Z,50.84
2018-09-23T05:49:06.366Z,51.73
2018-09-23T05:51:35.905Z,51.96
2018-09-23T05:54:05.475Z,51.08
2018-09-23T05:56:35.020Z,50.69
2018-09-23T05:59:04.610Z,50.08
2018-09-23T06:01:34.224Z,50.08
2018-09-23T06:04:03.755Z,49.18
2018-09-23T06:06:33.277Z,49.41
2018-09-23T06:09:02.930Z,47.69
2018-09-23T06:11:32.492Z,47.15
2018-09-23T06:14:02.028Z,46.50
2018-09-23T06:16:31.530Z,46.32
2018-09-23T06:19:01.075Z,45.66
2018-09-23T06:21:30.623Z,45.54
2018-09-23T06:24:00.151Z,45.37
2018-09-23T06:26:29.732Z,44.20
2018-09-23T06:28:59.299Z,44.23
2018-09-23T06:31:28.896Z,42.64
2018-09-23T06:33:58.389Z,42.48
2018-09-23T06:36:27.930Z,41.49
2018-09-23T06:38:57.575Z,41.62
2018-09-23T06:41:27.174Z,40.66
2018-09-23T06:43:56.726Z,39.44
2018-09-23T06:46:26.352Z,38.69
2018-09-23T06:48:55.878Z,38.05
2018-09-23T06:51:25.423Z,37.37
2018-09-23T06:53:54.950Z,37.83
2018-09-23T06:56:24.492Z,37.69
2018-09-23T06:58:53.992Z,37.72
2018-09-23T07:01:23.592Z,37.18
2018-09-23T07:03:53.121Z,37.71
2018-09-23T07:06:22.667Z,37.25
2018-09-23T07:08:52.235Z,36.73
2018-09-23T07:11:21.727Z,36.64
2018-09-23T07:13:51.246Z,36.62
2018-09-23T07:16:20.778Z,36.77
2018-09-23T07:18:50.316Z,36.31
2018-09-23T07:21:19.790Z,36.33
2018-09-23T07:23:49.320Z,36.23
2018-09-23T07:26:18.910Z,36.33
2018-09-23T07:28:48.412Z,36.55
2018-09-23T07:31:17.958Z,35.47
2018-09-23T07:33:47.558Z,36.43
2018-09-23T07:36:17.079Z,35.69
2018-09-23T07:38:46.625Z,35.01
2018-09-23T07:41:16.179Z,35.25
2018-09-23T07:43:45.719Z,34.80
2018-09-23T07:46:15.247Z,34.67
2018-09-23T07:48:44.852Z,34.69
2018-09-23T07:51:14.404Z,34.92
2018-09-23T07:53:43.931Z,33.84
2018-09-23T07:56:13.432Z,33.98
2018-09-23T07:58:42.970Z,34.45
2018-09-23T08:01:12.501Z,33.99
2018-09-23T08:03:42.041Z,33.38
2018-09-23T08:06:11.566Z,33.33
2018-09-23T08:08:41.155Z,33.28
2018-09-23T08:11:10.715Z,33.56
2018-09-23T08:13:40.489Z,32.98
2018-09-23T08:16:10.460Z,33.44
2018-09-23T08:18:39.999Z,33.42
2018-09-23T08:21:09.560Z,32.91
2018-09-23T08:23:39.106Z,33.02
2018-09-23T08:26:08.647Z,32.48
2018-09-23T08:28:38.257Z,32.18
2018-09-23T08:31:07.923Z,32.03
2018-09-23T08:33:37.449Z,31.68
2018-09-23T08:36:06.963Z,32.34
2018-09-23T08:38:36.512Z,31.78
2018-09-23T08:41:06.015Z,32.47
2018-09-23T08:43:35.828Z,31.89
2018-09-23T08:46:05.326Z,32.00
2018-09-23T08:48:34.864Z,31.79
2018-09-23T08:51:04.552Z,31.99
2018-09-23T08:53:34.299Z,32.13
2018-09-23T08:56:04.068Z,31.06
2018-09-23T08:58:33.679Z,31.60
2018-09-23T09:01:03.231Z,31.72
2018-09-23T09:03:32.754Z,31.36
2018-09-23T09:06:02.375Z,31.20
2018-09-23T09:08:31.940Z,31.09
2018-09-23T09:11:01.474Z,31.11
2018-09-23T09:13:31.051Z,31.42
2018-09-23T09:16:00.595Z,31.21
2018-09-23T09:18:30.201Z,31.27
2018-09-23T09:20:59.874Z,30.71
2018-09-23T09:23:29.463Z,30.78
2018-09-23T09:25:59.007Z,30.86
2018-09-23T09:28:28.559Z,29.69
2018-09-23T09:30:58.080Z,29.79
2018-09-23T09:33:27.642Z,30.40
2018-09-23T09:35:57.187Z,30.47
2018-09-23T09:38:26.813Z,29.92
2018-09-23T09:40:56.420Z,30.34
2018-09-23T09:43:25.967Z,29.43
2018-09-23T09:45:55.536Z,29.15
2018-09-23T09:48:25.104Z,28.58
2018-09-23T09:50:54.668Z,29.14
2018-09-23T09:53:24.194Z,29.56
2018-09-23T09:55:53.747Z,28.54
2018-09-23T09:58:23.318Z,29.44
2018-09-23T10:00:52.836Z,28.96
2018-09-23T10:03:22.330Z,28.84
2018-09-23T10:05:51.903Z,28.42
2018-09-23T10:08:21.390Z,28.55
2018-09-23T10:10:50.925Z,28.37
2018-09-23T10:13:20.412Z,27.95
2018-09-23T10:15:50.050Z,29.08
2018-09-23T10:18:19.546Z,28.90
2018-09-23T10:20:49.081Z,28.34
2018-09-23T10:23:18.744Z,28.20
2018-09-23T10:25:48.130Z,28.62
2018-09-23T10:28:17.682Z,28.90
2018-09-23T10:30:47.292Z,28.78
2018-09-23T10:33:16.790Z,27.81
2018-09-23T10:35:46.359Z,28.37
2018-09-23T10:38:15.882Z,27.92
2018-09-23T10:40:45.460Z,27.88
2018-09-23T10:43:14.955Z,27.77
2018-09-23T10:45:44.487Z,27.68
2018-09-23T10:48:13.983Z,28.33
2018-09-23T10:50:43.547Z,27.61
2018-09-23T10:53:13.114Z,27.66
2018-09-23T10:55:42.676Z,27.67
2018-09-23T10:58:12.228Z,27.43
2018-09-23T11:00:41.780Z,27.31
2018-09-23T11:03:11.314Z,26.62
2018-09-23T11:05:40.965Z,26.71
2018-09-23T11:08:10.524Z,27.24
2018-09-23T11:10:40.006Z,26.81
2018-09-23T11:13:09.665Z,26.62
2018-09-23T11:15:39.237Z,27.25
2018-09-23T11:18:08.740Z,27.02
2018-09-23T11:20:38.360Z,26.47
2018-09-23T11:23:07.931Z,26.39
2018-09-23T11:25:37.480Z,26.48
2018-09-23T11:28:06.976Z,26.31
2018-09-23T11:30:36.548Z,26.14
2018-09-23T11:33:06.160Z,25.91
2018-09-23T11:35:35.675Z,26.00
2018-09-23T11:38:05.228Z,25.62
2018-09-23T11:40:34.710Z,26.04
2018-09-23T11:43:04.250Z,26.24
2018-09-23T11:45:34.762Z,26.07
2018-09-23T11:48:04.510Z,26.44
2018-09-23T11:50:34.104Z,26.45
2018-09-23T11:53:03.924Z,26.70
2018-09-23T11:55:33.459Z,25.94
2018-09-23T11:58:03.016Z,25.81
2018-09-23T12:00:32.502Z,26.07
2018-09-23T12:03:01.980Z,25.91
2018-09-23T12:05:31.501Z,26.11
2018-09-23T12:08:01.002Z,25.99
2018-09-23T12:10:30.663Z,25.92
2018-09-23T12:13:00.159Z,25.59
2018-09-23T12:15:29.698Z,25.38
2018-09-23T12:17:59.273Z,25.71
2018-09-23T12:20:28.752Z,25.66
2018-09-23T12:22:58.270Z,25.43
2018-09-23T12:25:27.806Z,25.41
2018-09-23T12:27:57.491Z,25.37
2018-09-23T12:30:27.009Z,25.55
2018-09-23T12:32:56.534Z,25.70
2018-09-23T12:35:26.042Z,25.87
2018-09-23T12:37:55.606Z,25.69
2018-09-23T12:40:25.136Z,25.30
2018-09-23T12:42:54.672Z,25.94
2018-09-23T12:45:24.186Z,25.70
2018-09-23T12:47:53.722Z,25.28
2018-09-23T12:50:23.347Z,25.58
2018-09-23T12:52:52.920Z,25.44
2018-09-23T12:55:22.455Z,25.67
2018-09-23T12:57:51.948Z,25.32
2018-09-23T13:00:21.549Z,25.05
2018-09-23T13:02:51.049Z,25.21
2018-09-23T13:05:20.586Z,25.23
2018-09-23T13:07:50.148Z,24.97
2018-09-23T13:10:19.710Z,24.71
2018-09-23T13:12:49.218Z,24.43
2018-09-23T13:15:18.749Z,24.59
2018-09-23T13:17:48.314Z,24.91
2018-09-23T13:20:17.837Z,24.84
2018-09-23T13:22:47.339Z,25.21
2018-09-23T13:25:16.858Z,25.65
2018-09-23T13:27:46.355Z,25.36
2018-09-23T13:30:16.123Z,25.29
2018-09-23T13:32:45.655Z,25.63
2018-09-23T13:35:15.142Z,25.71
2018-09-23T13:37:44.681Z,25.40
2018-09-23T13:40:14.259Z,25.20
2018-09-23T13:42:43.843Z,25.17
2018-09-23T13:45:13.373Z,25.45
2018-09-23T13:47:42.932Z,25.32
2018-09-23T13:50:12.454Z,25.25
2018-09-23T13:52:41.954Z,24.90
2018-09-23T13:55:11.486Z,24.67
2018-09-23T13:57:41.020Z,24.79
2018-09-23T14:00:10.674Z,25.12
2018-09-23T14:02:40.271Z,25.25
2018-09-23T14:05:09.828Z,25.60
2018-09-23T14:07:40.184Z,25.43
2018-09-23T14:10:09.752Z,25.55
2018-09-23T14:12:39.260Z,25.41
2018-09-23T14:15:08.808Z,25.16
2018-09-23T14:17:38.323Z,24.80
2018-09-23T14:20:07.983Z,24.48
2018-09-23T14:22:37.552Z,24.55
2018-09-23T14:25:07.132Z,24.48
2018-09-23T14:27:36.624Z,24.69
2018-09-23T14:30:06.254Z,25.01
2018-09-23T14:32:35.788Z,25.13
2018-09-23T14:35:05.404Z,24.79
2018-09-23T14:37:34.895Z,24.85
2018-09-23T14:40:04.566Z,25.39
2018-09-23T14:42:34.206Z,25.51
2018-09-23T14:45:03.650Z,26.25
2018-09-23T14:47:33.164Z,26.27
2018-09-23T14:50:02.692Z,26.65
2018-09-23T14:52:32.260Z,26.73
2018-09-23T14:55:01.849Z,26.18
2018-09-23T14:57:31.344Z,26.17
2018-09-23T15:00:03.203Z,26.48
2018-09-23T15:02:30.440Z,26.40
2018-09-23T15:04:59.915Z,26.48
2018-09-23T15:07:29.424Z,26.81
2018-09-23T15:09:58.913Z,27.28
2018-09-23T15:12:28.487Z,27.21
2018-09-23T15:14:58.003Z,27.59
2018-09-23T15:17:27.608Z,27.29
2018-09-23T15:19:57.223Z,27.43
2018-09-23T15:22:26.733Z,27.93
2018-09-23T15:24:56.215Z,27.50
2018-09-23T15:27:25.750Z,27.64
2018-09-23T15:29:55.230Z,27.99
2018-09-23T15:32:24.747Z,27.86
2018-09-23T15:34:54.233Z,28.22
2018-09-23T15:37:23.767Z,28.11
2018-09-23T15:39:53.258Z,28.08
2018-09-23T15:42:22.935Z,28.61
2018-09-23T15:44:52.419Z,28.67
2018-09-23T15:47:21.950Z,28.61
2018-09-23T15:49:51.480Z,29.29
2018-09-23T15:52:21.134Z,28.80
2018-09-23T15:54:50.614Z,29.36
2018-09-23T15:57:20.234Z,29.82
2018-09-23T15:59:49.750Z,30.01
2018-09-23T16:02:19.332Z,30.39
2018-09-23T16:04:48.867Z,30.42
2018-09-23T16:07:18.391Z,31.25
2018-09-23T16:09:47.931Z,32.38
2018-09-23T16:12:17.458Z,31.79
2018-09-23T16:14:47.026Z,31.53
2018-09-23T16:17:16.595Z,32.02
2018-09-23T16:19:46.135Z,32.31
2018-09-23T16:22:15.712Z,32.54
2018-09-23T16:24:45.251Z,33.90
2018-09-23T16:27:14.830Z,33.93
2018-09-23T16:29:44.383Z,32.79
2018-09-23T16:32:13.961Z,32.41
2018-09-23T16:34:43.518Z,32.36
2018-09-23T16:37:13.015Z,33.02
2018-09-23T16:39:42.519Z,33.26
2018-09-23T16:42:12.158Z,32.98
2018-09-23T16:44:41.743Z,32.55
2018-09-23T16:47:11.300Z,33.92
2018-09-23T16:49:40.835Z,33.70
2018-09-23T16:52:10.367Z,34.26
2018-09-23T16:54:39.987Z,34.39
2018-09-23T16:57:09.415Z,34.58
2018-09-23T16:59:38.930Z,35.21
2018-09-23T17:02:08.439Z,35.83
2018-09-23T17:04:37.968Z,35.94
2018-09-23T17:07:07.550Z,35.89
2018-09-23T17:09:37.116Z,35.93
2018-09-23T17:12:06.614Z,36.27
2018-09-23T17:14:36.150Z,35.87
2018-09-23T17:17:05.698Z,36.08
2018-09-23T17:19:35.310Z,36.22
2018-09-23T17:22:04.942Z,36.77
2018-09-23T17:24:34.532Z,36.94
2018-09-23T17:27:04.030Z,37.14
2018-09-23T17:29:33.613Z,36.72
2018-09-23T17:32:03.163Z,37.19
2018-09-23T17:34:32.687Z,36.97
2018-09-23T17:37:02.727Z,37.50
2018-09-23T17:39:32.316Z,37.29
2018-09-23T17:42:01.872Z,37.32
2018-09-23T17:44:31.367Z,37.95
2018-09-23T17:47:00.906Z,37.36
2018-09-23T17:49:30.411Z,37.94
2018-09-23T17:51:59.924Z,37.89
2018-09-23T17:54:29.412Z,37.98
2018-09-23T17:56:58.960Z,37.59
2018-09-23T17:59:28.514Z,37.83
2018-09-23T18:01:58.057Z,38.20
2018-09-23T18:04:27.583Z,38.08
2018-09-23T18:06:57.273Z,38.66
2018-09-23T18:09:26.871Z,38.91
2018-09-23T18:11:56.410Z,38.66
2018-09-23T18:14:25.939Z,38.49
2018-09-23T18:16:55.502Z,38.95
2018-09-23T18:19:25.045Z,38.70
2018-09-23T18:21:54.584Z,38.85
2018-09-23T18:24:24.178Z,39.07
2018-09-23T18:26:53.735Z,40.03
2018-09-23T18:29:23.242Z,39.32
2018-09-23T18:31:52.780Z,39.98
2018-09-23T18:34:22.331Z,40.41
2018-09-23T18:36:51.866Z,40.15
2018-09-23T18:39:21.454Z,39.85
2018-09-23T18:41:50.997Z,40.83
2018-09-23T18:44:20.569Z,41.06
2018-09-23T18:46:50.121Z,40.12
2018-09-23T18:49:19.762Z,40.69
2018-09-23T18:51:49.386Z,40.26
2018-09-23T18:54:24.004Z,40.20
2018-09-23T18:56:53.572Z,41.02
2018-09-23T18:59:23.127Z,40.95
2018-09-23T19:01:52.610Z,41.49
2018-09-23T19:04:22.146Z,41.22
2018-09-23T19:06:51.743Z,41.58
2018-09-23T19:09:21.356Z,42.12
2018-09-23T19:11:50.882Z,43.59
2018-09-23T19:14:20.483Z,42.29
2018-09-23T19:16:50.011Z,43.66
2018-09-23T19:19:19.682Z,43.42
2018-09-23T19:21:49.171Z,43.20
2018-09-23T19:24:18.707Z,44.08
2018-09-23T19:26:48.244Z,43.60
2018-09-23T19:29:17.798Z,43.11
2018-09-23T19:31:47.358Z,43.81
2018-09-23T19:34:16.913Z,43.97
2018-09-23T19:36:46.471Z,43.88
2018-09-23T19:39:16.018Z,43.52
2018-09-23T19:41:45.525Z,43.23
2018-09-23T19:44:15.130Z,43.82
2018-09-23T19:46:44.627Z,43.12
2018-09-23T19:49:14.228Z,43.31
2018-09-23T19:51:43.818Z,43.58
2018-09-23T19:54:13.305Z,44.19
2018-09-23T19:56:42.873Z,43.58
2018-09-23T19:59:12.378Z,44.53
2018-09-23T20:01:41.922Z,44.68
2018-09-23T20:04:11.387Z,44.62
2018-09-23T20:06:41.020Z,44.69
2018-09-23T20:09:11.424Z,44.23
2018-09-23T20:11:40.974Z,44.64
2018-09-23T20:14:10.879Z,44.20
2018-09-23T20:16:40.488Z,43.95
2018-09-23T20:19:10.133Z,44.28
2018-09-23T20:21:39.627Z,44.15
2018-09-23T20:24:09.186Z,44.78
2018-09-23T20:26:39.056Z,44.87
2018-09-23T20:29:08.743Z,44.66
2018-09-23T20:31:38.404Z,44.98
2018-09-23T20:34:08.060Z,44.47
2018-09-23T20:39:07.744Z,45.17
2018-09-23T20:41:38.280Z,45.35
2018-09-23T20:44:07.787Z,45.12
2018-09-23T20:46:37.428Z,45.62
2018-09-23T20:49:06.996Z,45.52
2018-09-23T20:51:36.538Z,46.35
2018-09-23T20:54:06.129Z,46.58
2018-09-23T20:56:35.706Z,46.48
2018-09-23T20:59:05.331Z,47.32
2018-09-23T21:01:34.868Z,47.41
2018-09-23T21:04:04.379Z,47.54
2018-09-23T21:06:34.016Z,46.86
2018-09-23T21:09:05.163Z,47.52
2018-09-23T21:11:34.725Z,47.57
2018-09-23T21:14:04.292Z,47.87
2018-09-23T21:16:33.811Z,49.53
2018-09-23T21:19:03.376Z,49.45
2018-09-23T21:21:33.068Z,49.55
2018-09-23T21:24:02.571Z,50.12
2018-09-23T21:26:32.204Z,50.01
2018-09-23T21:29:03.571Z,49.71
2018-09-23T21:31:33.155Z,50.54
2018-09-23T21:34:02.640Z,50.81
2018-09-23T21:36:32.225Z,50.97
2018-09-23T21:39:01.836Z,50.58
2018-09-23T21:41:31.408Z,51.38
2018-09-23T21:44:00.996Z,51.68
2018-09-23T21:46:30.599Z,51.31
2018-09-23T21:49:00.147Z,52.13
2018-09-23T21:51:29.677Z,52.56
2018-09-23T21:53:59.358Z,52.84
2018-09-23T21:56:28.871Z,53.01
2018-09-23T21:58:58.426Z,52.59
2018-09-23T22:01:27.914Z,52.77
2018-09-23T22:03:57.439Z,53.57
2018-09-23T22:06:27.054Z,53.42
2018-09-23T22:08:56.551Z,54.10
2018-09-23T22:11:26.355Z,54.25
2018-09-23T22:13:55.890Z,54.09
2018-09-23T22:16:25.418Z,54.90
2018-09-23T22:18:54.910Z,54.26
2018-09-23T22:21:24.519Z,54.30
2018-09-23T22:23:54.018Z,54.15
2018-09-23T22:26:23.624Z,55.70
2018-09-23T22:28:53.160Z,55.90
2018-09-23T22:31:22.649Z,56.11
2018-09-23T22:33:52.182Z,56.22
2018-09-23T22:36:21.716Z,56.11
2018-09-23T22:38:51.219Z,56.06
2018-09-23T22:41:20.856Z,56.82
2018-09-23T22:43:50.339Z,56.60
2018-09-23T22:46:19.973Z,57.02
2018-09-23T22:48:49.462Z,57.48
2018-09-23T22:51:18.968Z,57.27
2018-09-23T22:53:48.522Z,57.73
2018-09-23T22:56:18.067Z,57.12
2018-09-23T22:58:47.639Z,57.05
2018-09-23T23:01:17.130Z,58.00
2018-09-23T23:03:46.651Z,58.37
2018-09-23T23:06:16.215Z,58.74
2018-09-23T23:08:45.920Z,59.21
2018-09-23T23:11:15.415Z,58.81
2018-09-23T23:13:44.951Z,59.69
2018-09-23T23:16:14.456Z,58.73
2018-09-23T23:18:44.015Z,59.20
2018-09-23T23:21:13.564Z,59.50
2018-09-23T23:23:43.082Z,59.41
2018-09-23T23:26:12.574Z,59.89
2018-09-23T23:28:42.098Z,60.75
2018-09-23T23:31:11.603Z,61.37
2018-09-23T23:33:41.130Z,60.91
2018-09-23T23:36:10.655Z,61.52
2018-09-23T23:38:40.170Z,61.58
2018-09-23T23:41:09.706Z,61.71
2018-09-23T23:43:39.270Z,61.49
2018-09-23T23:46:08.825Z,61.41
2018-09-23T23:48:38.331Z,61.14
2018-09-23T23:51:07.867Z,61.79
2018-09-23T23:53:37.468Z,61.48
2018-09-23T23:56:07.068Z,61.30
2018-09-23T23:58:36.587Z,61.91
